sensor_id;sensor_type;location;lat;lon;timestamp;pressure;altitude;pressure_sealevel;temperature;humidity
58843;BME280;44614;54.356;10.100;2023-08-30T00:00:07;100594.81;;;12.87;100.00
58843;BME280;44614;54.356;10.100;2023-08-30T00:02:32;100602.47;;;12.85;100.00
58843;BME280;44614;54.356;10.100;2023-08-30T00:04:58;100590.88;;;12.83;100.00
58843;BME280;44614;54.356;10.100;2023-08-30T00:07:24;100587.50;;;12.81;100.00
58843;BME280;44614;54.356;10.100;2023-08-30T00:09:49;100589.06;;;12.77;100.00
58843;BME280;44614;54.356;10.100;2023-08-30T00:12:15;100586.56;;;12.76;100.00
58843;BME280;44614;54.356;10.100;2023-08-30T00:14:40;100582.16;;;12.75;100.00
58843;BME280;44614;54.356;10.100;2023-08-30T00:17:05;100584.31;;;12.73;100.00
58843;BME280;44614;54.356;10.100;2023-08-30T00:19:31;100584.31;;;12.73;100.00
58843;BME280;44614;54.356;10.100;2023-08-30T00:21:56;100582.03;;;12.69;100.00
58843;BME280;44614;54.356;10.100;2023-08-30T00:24:22;100586.81;;;12.62;100.00
58843;BME280;44614;54.356;10.100;2023-08-30T00:26:47;100589.00;;;12.60;100.00
58843;BME280;44614;54.356;10.100;2023-08-30T00:29:13;100595.34;;;12.61;100.00
58843;BME280;44614;54.356;10.100;2023-08-30T00:31:38;100583.72;;;12.59;100.00
58843;BME280;44614;54.356;10.100;2023-08-30T00:34:04;100589.47;;;12.57;100.00
58843;BME280;44614;54.356;10.100;2023-08-30T00:36:29;100576.44;;;12.53;100.00
58843;BME280;44614;54.356;10.100;2023-08-30T00:38:55;100579.69;;;12.50;100.00
58843;BME280;44614;54.356;10.100;2023-08-30T00:41:20;100583.25;;;12.50;100.00
58843;BME280;44614;54.356;10.100;2023-08-30T00:43:46;100578.00;;;12.49;100.00
58843;BME280;44614;54.356;10.100;2023-08-30T00:46:11;100580.16;;;12.47;100.00
58843;BME280;44614;54.356;10.100;2023-08-30T00:48:38;100581.13;;;12.40;100.00
58843;BME280;44614;54.356;10.100;2023-08-30T00:51:03;100586.75;;;12.34;100.00
58843;BME280;44614;54.356;10.100;2023-08-30T00:53:29;100584.75;;;12.29;100.00
58843;BME280;44614;54.356;10.100;2023-08-30T00:55:54;100585.22;;;12.26;100.00
58843;BME280;44614;54.356;10.100;2023-08-30T00:58:19;100587.34;;;12.24;100.00
58843;BME280;44614;54.356;10.100;2023-08-30T01:00:45;100588.44;;;12.23;100.00
58843;BME280;44614;54.356;10.100;2023-08-30T01:03:10;100581.00;;;12.24;100.00
58843;BME280;44614;54.356;10.100;2023-08-30T01:05:35;100580.19;;;12.23;100.00
58843;BME280;44614;54.356;10.100;2023-08-30T01:08:01;100579.34;;;12.23;100.00
58843;BME280;44614;54.356;10.100;2023-08-30T01:10:37;100579.81;;;12.19;100.00
58843;BME280;44614;54.356;10.100;2023-08-30T01:13:06;100585.81;;;12.16;100.00
58843;BME280;44614;54.356;10.100;2023-08-30T01:15:33;100575.31;;;12.13;100.00
58843;BME280;44614;54.356;10.100;2023-08-30T01:17:59;100578.28;;;12.12;100.00
58843;BME280;44614;54.356;10.100;2023-08-30T01:20:25;100578.75;;;12.09;100.00
58843;BME280;44614;54.356;10.100;2023-08-30T01:28:09;100563.69;;;12.00;100.00
58843;BME280;44614;54.356;10.100;2023-08-30T01:30:36;100564.50;;;12.00;100.00
58843;BME280;44614;54.356;10.100;2023-08-30T01:33:02;100560.09;;;11.99;100.00
58843;BME280;44614;54.356;10.100;2023-08-30T01:35:29;100549.31;;;11.98;100.00
58843;BME280;44614;54.356;10.100;2023-08-30T01:37:59;100548.13;;;11.93;100.00
58843;BME280;44614;54.356;10.100;2023-08-30T01:40:27;100553.63;;;11.93;100.00
58843;BME280;44614;54.356;10.100;2023-08-30T01:42:53;100550.28;;;11.91;100.00
58843;BME280;44614;54.356;10.100;2023-08-30T01:45:19;100554.34;;;11.89;100.00
58843;BME280;44614;54.356;10.100;2023-08-30T01:47:45;100560.09;;;11.87;100.00
58843;BME280;44614;54.356;10.100;2023-08-30T01:50:11;100557.16;;;11.82;100.00
58843;BME280;44614;54.356;10.100;2023-08-30T01:52:37;100559.81;;;11.77;100.00
58843;BME280;44614;54.356;10.100;2023-08-30T01:55:03;100553.34;;;11.71;100.00
58843;BME280;44614;54.356;10.100;2023-08-30T01:57:30;100557.78;;;11.73;100.00
58843;BME280;44614;54.356;10.100;2023-08-30T01:59:55;100557.53;;;11.74;100.00
58843;BME280;44614;54.356;10.100;2023-08-30T02:02:21;100555.84;;;11.73;100.00
58843;BME280;44614;54.356;10.100;2023-08-30T02:04:46;100559.06;;;11.70;100.00
58843;BME280;44614;54.356;10.100;2023-08-30T02:07:13;100548.06;;;11.70;100.00
58843;BME280;44614;54.356;10.100;2023-08-30T02:09:54;100544.75;;;11.68;100.00
58843;BME280;44614;54.356;10.100;2023-08-30T02:12:22;100544.97;;;11.66;100.00
58843;BME280;44614;54.356;10.100;2023-08-30T02:14:50;100539.94;;;11.63;100.00
58843;BME280;44614;54.356;10.100;2023-08-30T02:17:17;100534.69;;;11.62;100.00
58843;BME280;44614;54.356;10.100;2023-08-30T02:19:42;100536.81;;;11.60;100.00
58843;BME280;44614;54.356;10.100;2023-08-30T02:22:08;100535.16;;;11.59;100.00
58843;BME280;44614;54.356;10.100;2023-08-30T02:24:34;100529.06;;;11.57;100.00
58843;BME280;44614;54.356;10.100;2023-08-30T02:26:59;100532.28;;;11.54;100.00
58843;BME280;44614;54.356;10.100;2023-08-30T02:29:25;100528.91;;;11.52;100.00
58843;BME280;44614;54.356;10.100;2023-08-30T02:31:50;100524.75;;;11.49;100.00
58843;BME280;44614;54.356;10.100;2023-08-30T02:34:15;100524.75;;;11.49;100.00
58843;BME280;44614;54.356;10.100;2023-08-30T02:36:41;100523.28;;;11.46;100.00
58843;BME280;44614;54.356;10.100;2023-08-30T02:39:06;100521.84;;;11.44;100.00
58843;BME280;44614;54.356;10.100;2023-08-30T02:41:31;100513.84;;;11.42;100.00
58843;BME280;44614;54.356;10.100;2023-08-30T02:43:56;100521.25;;;11.42;100.00
58843;BME280;44614;54.356;10.100;2023-08-30T02:46:22;100520.06;;;11.38;100.00
58843;BME280;44614;54.356;10.100;2023-08-30T02:48:47;100519.44;;;11.36;100.00
58843;BME280;44614;54.356;10.100;2023-08-30T02:51:12;100522.44;;;11.34;100.00
58843;BME280;44614;54.356;10.100;2023-08-30T02:53:38;100517.78;;;11.35;100.00
58843;BME280;44614;54.356;10.100;2023-08-30T02:56:03;100513.72;;;11.37;100.00
58843;BME280;44614;54.356;10.100;2023-08-30T02:58:28;100513.47;;;11.39;100.00
58843;BME280;44614;54.356;10.100;2023-08-30T03:00:59;100511.94;;;11.43;100.00
58843;BME280;44614;54.356;10.100;2023-08-30T03:03:24;100510.63;;;11.45;100.00
58843;BME280;44614;54.356;10.100;2023-08-30T03:05:50;100515.66;;;11.49;100.00
58843;BME280;44614;54.356;10.100;2023-08-30T03:08:15;100511.84;;;11.50;100.00
58843;BME280;44614;54.356;10.100;2023-08-30T03:10:40;100508.63;;;11.53;100.00
58843;BME280;44614;54.356;10.100;2023-08-30T03:13:07;100512.78;;;11.55;100.00
58843;BME280;44614;54.356;10.100;2023-08-30T03:15:33;100518.66;;;11.59;100.00
58843;BME280;44614;54.356;10.100;2023-08-30T03:18:01;100516.50;;;11.61;100.00
58843;BME280;44614;54.356;10.100;2023-08-30T03:20:27;100509.66;;;11.63;100.00
58843;BME280;44614;54.356;10.100;2023-08-30T03:22:56;100513.03;;;11.65;100.00
58843;BME280;44614;54.356;10.100;2023-08-30T03:25:22;100510.88;;;11.67;100.00
58843;BME280;44614;54.356;10.100;2023-08-30T03:27:48;100515.06;;;11.70;100.00
58843;BME280;44614;54.356;10.100;2023-08-30T03:30:13;100512.09;;;11.71;100.00
58843;BME280;44614;54.356;10.100;2023-08-30T03:32:38;100510.19;;;11.72;100.00
58843;BME280;44614;54.356;10.100;2023-08-30T03:35:05;100502.50;;;11.74;100.00
58843;BME280;44614;54.356;10.100;2023-08-30T03:37:32;100512.44;;;11.75;100.00
58843;BME280;44614;54.356;10.100;2023-08-30T03:39:57;100500.38;;;11.76;100.00
58843;BME280;44614;54.356;10.100;2023-08-30T03:42:22;100506.44;;;11.78;100.00
58843;BME280;44614;54.356;10.100;2023-08-30T03:44:48;100498.56;;;11.82;100.00
58843;BME280;44614;54.356;10.100;2023-08-30T03:47:13;100491.78;;;11.84;100.00
58843;BME280;44614;54.356;10.100;2023-08-30T03:49:38;100497.03;;;11.86;100.00
58843;BME280;44614;54.356;10.100;2023-08-30T03:52:06;100495.72;;;11.88;100.00
58843;BME280;44614;54.356;10.100;2023-08-30T03:54:31;100488.06;;;11.90;100.00
58843;BME280;44614;54.356;10.100;2023-08-30T03:56:56;100487.00;;;11.91;100.00
58843;BME280;44614;54.356;10.100;2023-08-30T03:59:22;100480.41;;;11.92;100.00
58843;BME280;44614;54.356;10.100;2023-08-30T04:01:48;100482.69;;;11.95;100.00
58843;BME280;44614;54.356;10.100;2023-08-30T04:04:13;100503.63;;;11.97;100.00
58843;BME280;44614;54.356;10.100;2023-08-30T04:06:40;100481.13;;;12.00;100.00
58843;BME280;44614;54.356;10.100;2023-08-30T04:09:05;100474.53;;;12.01;100.00
58843;BME280;44614;54.356;10.100;2023-08-30T04:11:31;100466.88;;;12.03;100.00
58843;BME280;44614;54.356;10.100;2023-08-30T04:13:56;100469.16;;;12.06;100.00
58843;BME280;44614;54.356;10.100;2023-08-30T04:16:21;100461.47;;;12.08;100.00
58843;BME280;44614;54.356;10.100;2023-08-30T04:18:46;100459.34;;;12.10;100.00
58843;BME280;44614;54.356;10.100;2023-08-30T04:21:12;100451.66;;;12.12;100.00
58843;BME280;44614;54.356;10.100;2023-08-30T04:23:37;100459.69;;;12.13;100.00
58843;BME280;44614;54.356;10.100;2023-08-30T04:26:03;100459.44;;;12.15;100.00
58843;BME280;44614;54.356;10.100;2023-08-30T04:28:29;100454.50;;;12.17;100.00
58843;BME280;44614;54.356;10.100;2023-08-30T04:30:54;100454.50;;;12.17;100.00
58843;BME280;44614;54.356;10.100;2023-08-30T04:33:20;100444.09;;;12.19;100.00
58843;BME280;44614;54.356;10.100;2023-08-30T04:35:49;100452.72;;;12.23;100.00
58843;BME280;44614;54.356;10.100;2023-08-30T04:38:15;100445.91;;;12.25;100.00
58843;BME280;44614;54.356;10.100;2023-08-30T04:40:40;100453.91;;;12.27;100.00
58843;BME280;44614;54.356;10.100;2023-08-30T04:43:06;100456.16;;;12.30;100.00
58843;BME280;44614;54.356;10.100;2023-08-30T04:45:31;100450.41;;;12.31;100.00
58843;BME280;44614;54.356;10.100;2023-08-30T04:47:56;100442.75;;;12.33;100.00
58843;BME280;44614;54.356;10.100;2023-08-30T04:50:24;100444.41;;;12.34;100.00
58843;BME280;44614;54.356;10.100;2023-08-30T04:52:50;100455.78;;;12.38;100.00
58843;BME280;44614;54.356;10.100;2023-08-30T04:55:16;100444.28;;;12.41;100.00
58843;BME280;44614;54.356;10.100;2023-08-30T04:57:41;100448.44;;;12.43;100.00
58843;BME280;44614;54.356;10.100;2023-08-30T05:00:12;100452.38;;;12.48;100.00
58843;BME280;44614;54.356;10.100;2023-08-30T05:02:38;100440.03;;;12.50;100.00
58843;BME280;44614;54.356;10.100;2023-08-30T05:05:06;100437.63;;;12.54;100.00
58843;BME280;44614;54.356;10.100;2023-08-30T05:07:32;100448.16;;;12.57;100.00
58843;BME280;44614;54.356;10.100;2023-08-30T05:09:57;100443.00;;;12.60;100.00
58843;BME280;44614;54.356;10.100;2023-08-30T05:12:23;100440.00;;;12.62;100.00
58843;BME280;44614;54.356;10.100;2023-08-30T05:14:48;100441.16;;;12.66;100.00
58843;BME280;44614;54.356;10.100;2023-08-30T05:17:13;100438.53;;;12.71;100.00
58843;BME280;44614;54.356;10.100;2023-08-30T05:19:38;100443.53;;;12.74;100.00
58843;BME280;44614;54.356;10.100;2023-08-30T05:22:04;100447.72;;;12.77;100.00
58843;BME280;44614;54.356;10.100;2023-08-30T05:24:29;100448.88;;;12.81;100.00
58843;BME280;44614;54.356;10.100;2023-08-30T05:26:54;100449.22;;;12.84;100.00
58843;BME280;44614;54.356;10.100;2023-08-30T05:29:24;100450.41;;;12.88;100.00
58843;BME280;44614;54.356;10.100;2023-08-30T05:31:50;100449.09;;;12.91;100.00
58843;BME280;44614;54.356;10.100;2023-08-30T05:34:45;100459.09;;;12.97;100.00
58843;BME280;44614;54.356;10.100;2023-08-30T05:37:19;100459.44;;;13.01;100.00
58843;BME280;44614;54.356;10.100;2023-08-30T05:40:17;100459.28;;;13.07;100.00
58843;BME280;44614;54.356;10.100;2023-08-30T05:42:43;100459.63;;;13.11;100.00
58843;BME280;44614;54.356;10.100;2023-08-30T05:45:08;100459.97;;;13.14;100.00
58843;BME280;44614;54.356;10.100;2023-08-30T05:47:33;100469.41;;;13.18;100.00
58843;BME280;44614;54.356;10.100;2023-08-30T05:49:59;100465.94;;;13.23;100.00
58843;BME280;44614;54.356;10.100;2023-08-30T05:52:25;100469.63;;;13.29;100.00
58843;BME280;44614;54.356;10.100;2023-08-30T05:54:50;100453.16;;;13.34;100.00
58843;BME280;44614;54.356;10.100;2023-08-30T05:57:16;100457.06;;;13.38;100.00
58843;BME280;44614;54.356;10.100;2023-08-30T05:59:42;100451.63;;;13.43;100.00
58843;BME280;44614;54.356;10.100;2023-08-30T06:02:07;100448.16;;;13.48;100.00
58843;BME280;44614;54.356;10.100;2023-08-30T06:04:32;100447.13;;;13.54;100.00
58843;BME280;44614;54.356;10.100;2023-08-30T06:06:58;100438.09;;;13.58;100.00
58843;BME280;44614;54.356;10.100;2023-08-30T06:09:23;100437.91;;;13.65;100.00
58843;BME280;44614;54.356;10.100;2023-08-30T06:11:48;100436.91;;;13.71;100.00
58843;BME280;44614;54.356;10.100;2023-08-30T06:14:14;100432.53;;;13.75;100.00
58843;BME280;44614;54.356;10.100;2023-08-30T06:16:39;100426.84;;;13.82;100.00
58843;BME280;44614;54.356;10.100;2023-08-30T06:19:09;100433.88;;;13.89;100.00
58843;BME280;44614;54.356;10.100;2023-08-30T06:21:34;100433.09;;;13.94;100.00
58843;BME280;44614;54.356;10.100;2023-08-30T06:23:59;100429.56;;;13.99;100.00
58843;BME280;44614;54.356;10.100;2023-08-30T06:26:24;100429.63;;;14.04;100.00
58843;BME280;44614;54.356;10.100;2023-08-30T06:28:50;100425.56;;;14.11;100.00
58843;BME280;44614;54.356;10.100;2023-08-30T06:31:15;100412.41;;;14.19;100.00
58843;BME280;44614;54.356;10.100;2023-08-30T06:33:40;100411.66;;;14.23;100.00
58843;BME280;44614;54.356;10.100;2023-08-30T06:36:06;100407.00;;;14.29;100.00
58843;BME280;44614;54.356;10.100;2023-08-30T06:38:31;100401.06;;;14.42;100.00
58843;BME280;44614;54.356;10.100;2023-08-30T06:40:59;100395.47;;;14.54;100.00
58843;BME280;44614;54.356;10.100;2023-08-30T06:43:25;100398.06;;;14.66;100.00
58843;BME280;44614;54.356;10.100;2023-08-30T06:45:50;100401.53;;;14.83;100.00
58843;BME280;44614;54.356;10.100;2023-08-30T06:48:16;100399.19;;;14.97;100.00
58843;BME280;44614;54.356;10.100;2023-08-30T06:50:41;100399.25;;;15.07;100.00
58843;BME280;44614;54.356;10.100;2023-08-30T06:53:06;100398.81;;;15.20;100.00
58843;BME280;44614;54.356;10.100;2023-08-30T06:55:32;100398.13;;;15.35;100.00
58843;BME280;44614;54.356;10.100;2023-08-30T06:57:58;100398.00;;;15.57;100.00
58843;BME280;44614;54.356;10.100;2023-08-30T07:00:24;100394.84;;;15.80;100.00
58843;BME280;44614;54.356;10.100;2023-08-30T07:02:49;100387.41;;;15.91;100.00
58843;BME280;44614;54.356;10.100;2023-08-30T07:05:14;100398.81;;;16.05;100.00
58843;BME280;44614;54.356;10.100;2023-08-30T07:07:40;100394.97;;;16.11;99.54
58843;BME280;44614;54.356;10.100;2023-08-30T07:10:05;100396.09;;;16.15;99.54
58843;BME280;44614;54.356;10.100;2023-08-30T07:12:30;100398.63;;;16.22;98.68
58843;BME280;44614;54.356;10.100;2023-08-30T07:14:56;100399.78;;;16.36;98.52
58843;BME280;44614;54.356;10.100;2023-08-30T07:17:21;100402.88;;;16.55;97.19
58843;BME280;44614;54.356;10.100;2023-08-30T07:19:46;100395.69;;;16.69;96.02
58843;BME280;44614;54.356;10.100;2023-08-30T07:22:12;100401.00;;;16.81;95.04
58843;BME280;44614;54.356;10.100;2023-08-30T07:24:37;100406.59;;;16.91;92.98
58843;BME280;44614;54.356;10.100;2023-08-30T07:27:03;100401.88;;;17.02;91.92
58843;BME280;44614;54.356;10.100;2023-08-30T07:29:28;100399.13;;;17.17;91.66
58843;BME280;44614;54.356;10.100;2023-08-30T07:31:53;100400.50;;;17.25;90.73
58843;BME280;44614;54.356;10.100;2023-08-30T07:34:19;100403.81;;;17.37;89.60
58843;BME280;44614;54.356;10.100;2023-08-30T07:36:45;100390.47;;;17.49;89.76
58843;BME280;44614;54.356;10.100;2023-08-30T07:39:11;100394.91;;;17.56;87.23
58843;BME280;44614;54.356;10.100;2023-08-30T07:41:36;100394.88;;;17.61;87.25
58843;BME280;44614;54.356;10.100;2023-08-30T07:44:01;100402.09;;;17.67;85.87
58843;BME280;44614;54.356;10.100;2023-08-30T07:46:28;100394.03;;;17.65;85.50
58843;BME280;44614;54.356;10.100;2023-08-30T07:48:54;100388.75;;;17.74;85.94
58843;BME280;44614;54.356;10.100;2023-08-30T07:51:19;100396.78;;;17.91;85.92
58843;BME280;44614;54.356;10.100;2023-08-30T07:53:44;100395.09;;;18.05;85.24
58843;BME280;44614;54.356;10.100;2023-08-30T07:56:10;100397.00;;;18.05;83.28
58843;BME280;44614;54.356;10.100;2023-08-30T07:58:35;100392.81;;;18.12;84.16
58843;BME280;44614;54.356;10.100;2023-08-30T08:01:00;100392.78;;;18.22;82.93
58843;BME280;44614;54.356;10.100;2023-08-30T08:03:26;100342.59;;;17.98;82.27
58843;BME280;44614;54.356;10.100;2023-08-30T08:05:51;100398.81;;;18.40;81.65
58843;BME280;44614;54.356;10.100;2023-08-30T08:08:16;100401.03;;;18.38;79.02
58843;BME280;44614;54.356;10.100;2023-08-30T08:10:43;100393.78;;;18.42;79.57
58843;BME280;44614;54.356;10.100;2023-08-30T08:13:08;100395.69;;;18.46;79.04
58843;BME280;44614;54.356;10.100;2023-08-30T08:15:34;100398.75;;;18.50;77.93
58843;BME280;44614;54.356;10.100;2023-08-30T08:18:00;100397.91;;;18.55;79.34
58843;BME280;44614;54.356;10.100;2023-08-30T08:20:25;100402.03;;;18.62;77.22
58843;BME280;44614;54.356;10.100;2023-08-30T08:22:51;100403.94;;;18.72;78.62
58843;BME280;44614;54.356;10.100;2023-08-30T08:25:16;100407.53;;;18.78;76.74
58843;BME280;44614;54.356;10.100;2023-08-30T08:27:42;100402.22;;;18.81;76.50
58843;BME280;44614;54.356;10.100;2023-08-30T08:30:07;100402.69;;;18.88;76.70
58843;BME280;44614;54.356;10.100;2023-08-30T08:32:32;100397.38;;;18.97;76.27
58843;BME280;44614;54.356;10.100;2023-08-30T08:34:58;100398.59;;;19.15;77.99
58843;BME280;44614;54.356;10.100;2023-08-30T08:37:24;100389.41;;;19.19;74.14
58843;BME280;44614;54.356;10.100;2023-08-30T08:39:49;100390.38;;;19.34;73.05
58843;BME280;44614;54.356;10.100;2023-08-30T08:42:18;100394.72;;;19.45;74.30
58843;BME280;44614;54.356;10.100;2023-08-30T08:44:47;100402.50;;;19.48;73.32
58843;BME280;44614;54.356;10.100;2023-08-30T08:47:14;100392.41;;;19.52;72.57
58843;BME280;44614;54.356;10.100;2023-08-30T08:49:40;100396.03;;;19.53;72.72
58843;BME280;44614;54.356;10.100;2023-08-30T08:52:06;100402.19;;;19.49;72.71
58843;BME280;44614;54.356;10.100;2023-08-30T08:54:31;100400.13;;;19.65;74.38
58843;BME280;44614;54.356;10.100;2023-08-30T08:56:57;100398.28;;;19.80;73.61
58843;BME280;44614;54.356;10.100;2023-08-30T08:59:22;100396.88;;;19.82;72.28
58843;BME280;44614;54.356;10.100;2023-08-30T09:01:48;100399.06;;;19.85;72.03
58843;BME280;44614;54.356;10.100;2023-08-30T09:04:14;100398.78;;;19.87;70.87
58843;BME280;44614;54.356;10.100;2023-08-30T09:06:39;100402.69;;;19.86;72.76
58843;BME280;44614;54.356;10.100;2023-08-30T09:09:06;100399.72;;;20.01;72.33
58843;BME280;44614;54.356;10.100;2023-08-30T09:11:33;100390.47;;;20.06;71.27
58843;BME280;44614;54.356;10.100;2023-08-30T09:13:58;100395.94;;;19.92;70.20
58843;BME280;44614;54.356;10.100;2023-08-30T09:16:24;100391.00;;;19.84;71.34
58843;BME280;44614;54.356;10.100;2023-08-30T09:21:24;100393.19;;;19.87;71.55
58843;BME280;44614;54.356;10.100;2023-08-30T09:23:59;100393.97;;;19.92;70.78
58843;BME280;44614;54.356;10.100;2023-08-30T09:26:25;100395.31;;;19.95;70.34
58843;BME280;44614;54.356;10.100;2023-08-30T09:28:51;100393.59;;;19.99;70.04
58843;BME280;44614;54.356;10.100;2023-08-30T09:31:16;100396.34;;;20.04;70.31
58843;BME280;44614;54.356;10.100;2023-08-30T09:33:44;100390.19;;;20.07;70.05
58843;BME280;44614;54.356;10.100;2023-08-30T09:36:11;100393.81;;;20.08;70.83
58843;BME280;44614;54.356;10.100;2023-08-30T09:38:37;100389.53;;;20.15;70.33
58843;BME280;44614;54.356;10.100;2023-08-30T09:41:05;100394.50;;;20.18;68.49
58843;BME280;44614;54.356;10.100;2023-08-30T09:43:31;100390.94;;;20.13;68.95
58843;BME280;44614;54.356;10.100;2023-08-30T09:45:57;100402.09;;;20.13;68.34
58843;BME280;44614;54.356;10.100;2023-08-30T09:48:22;100396.38;;;19.99;69.27
58843;BME280;44614;54.356;10.100;2023-08-30T09:50:53;100396.59;;;20.08;71.25
58843;BME280;44614;54.356;10.100;2023-08-30T09:53:20;100393.25;;;20.06;70.78
58843;BME280;44614;54.356;10.100;2023-08-30T09:55:46;100393.69;;;19.94;70.89
58843;BME280;44614;54.356;10.100;2023-08-30T09:58:14;100393.50;;;19.85;71.69
58843;BME280;44614;54.356;10.100;2023-08-30T10:00:39;100401.13;;;19.75;70.06
58843;BME280;44614;54.356;10.100;2023-08-30T10:03:04;100389.69;;;19.76;71.77
58843;BME280;44614;54.356;10.100;2023-08-30T10:05:30;100379.44;;;19.95;72.75
58843;BME280;44614;54.356;10.100;2023-08-30T10:07:56;100377.59;;;20.10;70.71
58843;BME280;44614;54.356;10.100;2023-08-30T10:10:24;100365.94;;;20.08;70.02
58843;BME280;44614;54.356;10.100;2023-08-30T10:12:50;100382.16;;;20.25;71.87
58843;BME280;44614;54.356;10.100;2023-08-30T10:15:16;100378.00;;;20.41;68.98
58843;BME280;44614;54.356;10.100;2023-08-30T10:17:44;100375.19;;;20.46;67.40
58843;BME280;44614;54.356;10.100;2023-08-30T10:20:10;100382.34;;;20.52;67.16
58843;BME280;44614;54.356;10.100;2023-08-30T10:22:37;100386.34;;;20.46;65.60
58843;BME280;44614;54.356;10.100;2023-08-30T10:25:06;100377.50;;;20.39;66.55
58843;BME280;44614;54.356;10.100;2023-08-30T10:27:34;100382.34;;;20.52;67.06
58843;BME280;44614;54.356;10.100;2023-08-30T10:30:01;100376.59;;;20.43;67.07
58843;BME280;44614;54.356;10.100;2023-08-30T10:32:27;100377.41;;;20.44;67.94
58843;BME280;44614;54.356;10.100;2023-08-30T10:34:53;100382.91;;;20.54;68.74
58843;BME280;44614;54.356;10.100;2023-08-30T10:37:22;100391.25;;;20.54;67.23
58843;BME280;44614;54.356;10.100;2023-08-30T10:39:49;100383.06;;;20.39;66.25
58843;BME280;44614;54.356;10.100;2023-08-30T10:42:15;100381.91;;;20.21;65.85
58843;BME280;44614;54.356;10.100;2023-08-30T10:44:47;100391.69;;;20.00;65.67
58843;BME280;44614;54.356;10.100;2023-08-30T10:47:23;100391.94;;;19.98;67.59
58843;BME280;44614;54.356;10.100;2023-08-30T10:49:48;100387.94;;;19.85;66.09
58843;BME280;44614;54.356;10.100;2023-08-30T10:52:14;100383.66;;;19.93;67.94
58843;BME280;44614;54.356;10.100;2023-08-30T10:54:39;100376.47;;;19.87;67.96
58843;BME280;44614;54.356;10.100;2023-08-30T10:57:05;100377.31;;;20.11;68.98
58843;BME280;44614;54.356;10.100;2023-08-30T10:59:30;100370.09;;;20.48;70.00
58843;BME280;44614;54.356;10.100;2023-08-30T11:01:56;100368.81;;;20.64;67.47
58843;BME280;44614;54.356;10.100;2023-08-30T11:04:26;100366.22;;;20.68;65.40
58843;BME280;44614;54.356;10.100;2023-08-30T11:06:51;100354.44;;;20.90;65.04
58843;BME280;44614;54.356;10.100;2023-08-30T11:09:18;100364.09;;;20.79;61.49
58843;BME280;44614;54.356;10.100;2023-08-30T11:11:47;100366.38;;;20.77;62.09
58843;BME280;44614;54.356;10.100;2023-08-30T11:14:13;100366.75;;;20.70;59.89
58843;BME280;44614;54.356;10.100;2023-08-30T11:16:38;100359.59;;;20.64;59.21
58843;BME280;44614;54.356;10.100;2023-08-30T11:19:05;100361.91;;;20.76;58.87
58843;BME280;44614;54.356;10.100;2023-08-30T11:21:30;100358.47;;;20.65;57.78
58843;BME280;44614;54.356;10.100;2023-08-30T11:23:57;100362.16;;;20.60;59.49
58843;BME280;44614;54.356;10.100;2023-08-30T11:26:22;100352.94;;;20.60;59.65
58843;BME280;44614;54.356;10.100;2023-08-30T11:28:48;100343.53;;;20.75;59.47
58843;BME280;44614;54.356;10.100;2023-08-30T11:31:23;100342.28;;;21.00;60.26
58843;BME280;44614;54.356;10.100;2023-08-30T11:36:27;100335.91;;;21.46;59.24
58843;BME280;44614;54.356;10.100;2023-08-30T11:38:53;100341.78;;;21.44;59.33
58843;BME280;44614;54.356;10.100;2023-08-30T11:41:21;100345.84;;;21.38;58.31
58843;BME280;44614;54.356;10.100;2023-08-30T11:43:47;100345.06;;;21.32;57.44
58843;BME280;44614;54.356;10.100;2023-08-30T11:46:13;100345.91;;;21.33;56.69
58843;BME280;44614;54.356;10.100;2023-08-30T11:48:39;100345.47;;;21.26;56.11
58843;BME280;44614;54.356;10.100;2023-08-30T11:51:05;100339.47;;;21.32;60.03
58843;BME280;44614;54.356;10.100;2023-08-30T11:53:31;100337.25;;;21.34;58.53
58843;BME280;44614;54.356;10.100;2023-08-30T11:55:57;100338.97;;;21.30;58.90
58843;BME280;44614;54.356;10.100;2023-08-30T11:58:22;100332.31;;;21.45;61.04
58843;BME280;44614;54.356;10.100;2023-08-30T12:00:51;100327.63;;;21.40;57.02
58843;BME280;44614;54.356;10.100;2023-08-30T12:03:19;100325.88;;;21.45;59.99
58843;BME280;44614;54.356;10.100;2023-08-30T12:05:47;100341.28;;;21.42;57.77
58843;BME280;44614;54.356;10.100;2023-08-30T12:08:19;100336.84;;;21.41;58.14
58843;BME280;44614;54.356;10.100;2023-08-30T12:10:45;100332.19;;;21.17;58.62
58843;BME280;44614;54.356;10.100;2023-08-30T12:15:50;100323.78;;;21.36;60.56
58843;BME280;44614;54.356;10.100;2023-08-30T12:18:15;100313.97;;;21.66;59.42
58843;BME280;44614;54.356;10.100;2023-08-30T12:20:50;100321.75;;;21.70;59.69
58843;BME280;44614;54.356;10.100;2023-08-30T12:23:23;100320.19;;;21.77;56.42
58843;BME280;44614;54.356;10.100;2023-08-30T12:26:07;100315.22;;;21.74;53.65
58843;BME280;44614;54.356;10.100;2023-08-30T12:28:33;100305.00;;;21.83;55.35
58843;BME280;44614;54.356;10.100;2023-08-30T12:31:00;100309.53;;;21.93;54.60
58843;BME280;44614;54.356;10.100;2023-08-30T12:33:26;100305.16;;;22.01;54.23
58843;BME280;44614;54.356;10.100;2023-08-30T12:35:52;100311.97;;;22.36;57.41
58843;BME280;44614;54.356;10.100;2023-08-30T12:38:17;100306.13;;;22.46;55.23
58843;BME280;44614;54.356;10.100;2023-08-30T12:40:44;100304.31;;;22.28;53.65
58843;BME280;44614;54.356;10.100;2023-08-30T12:43:09;100305.00;;;21.70;54.21